Time;durP1;ratioP1;P1;durP2;ratioP2;P2;SDS_P1;SDS_P2;PMS_P1;PMS_P2;Temp;Humidity;BMP_temperature;BMP_pressure;BME280_temperature;BME280_humidity;BME280_pressure;Samples;Min_cycle;Max_cycle;Signal;HPM_P1;HPM_P2
2023/03/22 00:00:44;;;;;;;10.13;4.50;;;9.90;99.90;;;;;;5033522;28;20561;-70
2023/03/22 00:03:10;;;;;;;7.93;4.28;;;9.90;99.90;;;;;;5010470;28;20056;-69
2023/03/22 00:05:35;;;;;;;8.60;4.00;;;9.90;99.90;;;;;;5037410;28;20045;-68
2023/03/22 00:08:04;;;;;;;8.38;4.57;;;9.80;99.90;;;;;;5036572;28;20037;-67
2023/03/22 00:10:30;;;;;;;7.32;4.32;;;9.80;99.90;;;;;;5035643;28;20559;-69
2023/03/22 00:12:56;;;;;;;9.60;5.00;;;9.80;99.90;;;;;;5034257;28;20347;-69
2023/03/22 00:15:22;;;;;;;9.48;4.68;;;9.80;99.90;;;;;;5037059;28;20041;-71
2023/03/22 00:17:49;;;;;;;8.60;5.05;;;9.90;99.90;;;;;;5038837;28;20040;-69
2023/03/22 00:20:16;;;;;;;9.63;5.85;;;9.90;99.90;;;;;;5048396;28;20455;-67
2023/03/22 00:22:42;;;;;;;12.60;6.07;;;9.90;99.90;;;;;;5018524;28;20045;-69
2023/03/22 00:25:08;;;;;;;13.73;5.22;;;9.80;99.90;;;;;;5056464;28;20037;-67
2023/03/22 00:27:34;;;;;;;10.77;5.60;;;9.80;99.90;;;;;;5039073;28;20115;-66
2023/03/22 00:29:59;;;;;;;11.57;6.20;;;9.80;99.90;;;;;;5027159;28;20041;-68
2023/03/22 00:32:25;;;;;;;10.18;5.18;;;9.80;99.90;;;;;;5040902;28;20045;-70
2023/03/22 00:34:51;;;;;;;10.07;5.47;;;9.80;99.90;;;;;;5019203;28;20446;-69
2023/03/22 00:37:16;;;;;;;10.65;5.20;;;9.70;99.90;;;;;;5042850;28;20120;-69
2023/03/22 00:39:43;;;;;;;10.93;5.20;;;9.70;99.90;;;;;;5043315;28;20541;-67
2023/03/22 00:42:09;;;;;;;9.65;5.00;;;9.70;99.90;;;;;;5044300;28;20037;-68
2023/03/22 00:44:34;;;;;;;9.60;4.75;;;9.70;99.90;;;;;;5040393;28;20049;-70
2023/03/22 00:47:00;;;;;;;13.27;5.20;;;9.60;99.90;;;;;;5042338;28;20369;-68
2023/03/22 00:49:26;;;;;;;10.20;4.75;;;9.60;99.90;;;;;;5041747;28;20052;-70
2023/03/22 00:51:52;;;;;;;12.00;4.80;;;9.50;99.90;;;;;;5042644;28;20504;-67
2023/03/22 00:54:18;;;;;;;7.88;4.43;;;9.60;99.90;;;;;;5041404;28;20047;-70
2023/03/22 00:56:48;;;;;;;7.90;4.57;;;9.50;99.90;;;;;;5042414;28;20507;-70
2023/03/22 00:59:15;;;;;;;9.75;4.60;;;9.50;99.90;;;;;;5038765;28;20052;-70
2023/03/22 01:01:41;;;;;;;11.30;4.57;;;9.50;99.90;;;;;;5039248;28;20504;-70
2023/03/22 01:04:07;;;;;;;10.05;4.20;;;9.50;99.90;;;;;;5040185;28;20359;-67
2023/03/22 01:06:33;;;;;;;9.38;4.20;;;9.40;99.90;;;;;;5036200;28;20048;-71
2023/03/22 01:08:59;;;;;;;10.15;4.50;;;9.50;99.90;;;;;;5040084;28;20043;-69
2023/03/22 01:11:25;;;;;;;11.32;4.68;;;9.50;99.90;;;;;;5039823;28;20045;-69
2023/03/22 01:13:51;;;;;;;10.27;4.10;;;9.50;99.90;;;;;;5045047;28;20072;-69
2023/03/22 01:16:17;;;;;;;9.55;4.32;;;9.50;99.90;;;;;;5036990;28;20052;-70
2023/03/22 01:18:43;;;;;;;6.75;3.97;;;9.40;99.90;;;;;;5038441;28;20041;-69
2023/03/22 01:21:09;;;;;;;7.40;3.80;;;9.40;99.90;;;;;;5037080;28;20049;-70
2023/03/22 01:23:35;;;;;;;7.35;3.83;;;9.40;99.90;;;;;;5043069;28;20048;-71
2023/03/22 01:26:01;;;;;;;9.20;4.50;;;9.40;99.90;;;;;;5033461;28;20036;-69
2023/03/22 01:28:27;;;;;;;8.85;4.07;;;9.40;99.90;;;;;;5036366;28;20045;-72
2023/03/22 01:30:54;;;;;;;6.75;3.13;;;9.40;99.90;;;;;;5048129;28;20493;-70
2023/03/22 01:33:19;;;;;;;6.97;2.95;;;9.40;99.90;;;;;;5036251;28;20611;-68
2023/03/22 01:35:45;;;;;;;5.28;2.97;;;9.40;99.90;;;;;;5014893;28;20072;-68
2023/03/22 01:38:11;;;;;;;11.30;3.20;;;9.40;99.90;;;;;;5040252;28;20033;-68
2023/03/22 01:40:37;;;;;;;6.97;2.90;;;9.40;99.90;;;;;;5044686;28;20039;-69
2023/03/22 01:43:02;;;;;;;9.60;3.53;;;9.40;99.90;;;;;;5030597;28;20033;-71
2023/03/22 01:45:36;;;;;;;10.32;3.80;;;9.40;99.90;;;;;;5029155;28;20623;-70
2023/03/22 01:48:14;;;;;;;5.88;3.47;;;9.40;99.90;;;;;;5043566;28;20043;-68
2023/03/22 01:50:44;;;;;;;6.53;3.25;;;9.30;99.90;;;;;;5047571;28;20033;-70
2023/03/22 01:53:13;;;;;;;8.53;3.60;;;9.30;99.90;;;;;;5036582;28;20123;-70
2023/03/22 01:55:39;;;;;;;12.15;3.67;;;9.30;99.90;;;;;;5038138;28;20049;-70
2023/03/22 01:58:05;;;;;;;6.63;3.38;;;9.20;99.90;;;;;;5036993;28;20052;-68
2023/03/22 02:00:32;;;;;;;6.15;3.10;;;9.30;99.90;;;;;;5032489;28;20068;-70
2023/03/22 02:02:58;;;;;;;6.50;3.47;;;9.20;99.90;;;;;;5040699;28;20139;-69
2023/03/22 02:05:24;;;;;;;7.20;4.13;;;9.20;99.90;;;;;;5036144;28;20127;-69
2023/03/22 02:07:51;;;;;;;8.90;3.55;;;9.20;99.90;;;;;;5029934;28;20091;-69
2023/03/22 02:10:21;;;;;;;7.45;3.90;;;9.20;99.90;;;;;;5034794;28;20068;-71
2023/03/22 02:13:05;;;;;;;14.15;3.88;;;9.20;99.90;;;;;;5035779;28;20443;-69
2023/03/22 02:15:58;;;;;;;6.28;3.42;;;9.20;99.90;;;;;;5032131;28;20049;-70
2023/03/22 02:18:51;;;;;;;8.57;3.97;;;9.20;99.90;;;;;;5034751;28;20036;-69
2023/03/22 02:21:54;;;;;;;8.18;3.83;;;9.20;99.90;;;;;;5031180;28;20404;-70
2023/03/22 02:24:45;;;;;;;9.98;3.42;;;9.20;99.90;;;;;;5030902;28;20120;-68
2023/03/22 02:27:34;;;;;;;9.75;3.10;;;9.20;99.90;;;;;;5042639;28;20033;-70
2023/03/22 02:30:23;;;;;;;9.52;3.95;;;9.20;99.90;;;;;;5037565;28;20081;-70
2023/03/22 02:33:25;;;;;;;6.72;3.40;;;9.10;99.90;;;;;;5031845;28;20056;-69
2023/03/22 02:36:08;;;;;;;6.40;3.22;;;9.20;99.90;;;;;;5037529;28;20861;-70
2023/03/22 02:38:56;;;;;;;10.10;3.60;;;9.20;99.90;;;;;;5031330;28;20134;-69
2023/03/22 02:41:58;;;;;;;12.27;3.40;;;9.20;99.90;;;;;;5040391;28;20051;-72
2023/03/22 02:44:44;;;;;;;4.97;2.22;;;9.20;99.90;;;;;;5031108;28;20123;-70
2023/03/22 02:47:20;;;;;;;5.75;2.63;;;9.20;99.90;;;;;;5035298;28;20576;-69
2023/03/22 02:50:21;;;;;;;6.85;2.53;;;9.20;99.90;;;;;;5028740;28;20396;-71
2023/03/22 02:53:15;;;;;;;8.13;2.92;;;9.30;99.90;;;;;;5024163;28;20125;-70
2023/03/22 02:56:02;;;;;;;7.00;3.03;;;9.20;99.90;;;;;;5040330;28;20392;-69
2023/03/22 02:58:38;;;;;;;6.18;2.05;;;9.20;99.90;;;;;;5035941;28;20130;-70
2023/03/22 03:01:08;;;;;;;5.05;2.03;;;9.20;99.90;;;;;;5046669;28;20512;-71
2023/03/22 03:03:38;;;;;;;5.85;2.53;;;9.20;99.90;;;;;;5018148;28;20105;-71
2023/03/22 03:06:15;;;;;;;9.02;2.10;;;9.30;99.90;;;;;;5045257;28;20380;-69
2023/03/22 03:08:43;;;;;;;5.60;2.00;;;9.20;99.90;;;;;;5018781;28;20033;-70
2023/03/22 03:11:08;;;;;;;4.75;1.58;;;9.20;99.90;;;;;;5035934;28;20045;-70
2023/03/22 03:13:34;;;;;;;9.90;2.10;;;9.30;99.90;;;;;;5034421;28;20953;-68
2023/03/22 03:16:04;;;;;;;5.45;2.47;;;9.30;99.90;;;;;;5043983;28;20052;-68
2023/03/22 03:18:44;;;;;;;5.40;2.08;;;9.30;99.90;;;;;;5028120;28;20052;-71
2023/03/22 03:21:29;;;;;;;6.55;2.42;;;9.30;99.90;;;;;;5029785;28;20098;-69
2023/03/22 03:24:36;;;;;;;5.38;2.17;;;9.30;99.90;;;;;;5036790;28;20045;-71
2023/03/22 03:27:03;;;;;;;6.15;2.15;;;9.20;99.90;;;;;;4996685;28;20088;-70
2023/03/22 03:29:43;;;;;;;5.70;1.85;;;9.20;99.90;;;;;;4998851;28;20048;-69
2023/03/22 03:32:18;;;;;;;3.38;1.63;;;9.30;99.90;;;;;;5038982;28;20044;-69
2023/03/22 03:35:02;;;;;;;4.97;1.73;;;9.20;99.90;;;;;;5018605;28;20063;-71
2023/03/22 03:37:32;;;;;;;7.13;2.05;;;9.20;99.90;;;;;;5023799;28;20048;-69
2023/03/22 03:40:08;;;;;;;5.72;1.90;;;9.10;99.90;;;;;;5036600;28;20091;-70
2023/03/22 03:42:37;;;;;;;5.20;1.85;;;9.10;99.90;;;;;;5036455;28;20045;-69
2023/03/22 03:45:03;;;;;;;5.47;1.83;;;9.10;99.90;;;;;;5037044;28;20775;-69
2023/03/22 03:47:29;;;;;;;3.83;1.98;;;9.10;99.90;;;;;;5023857;28;20098;-70
2023/03/22 03:49:55;;;;;;;4.20;1.98;;;9.10;99.90;;;;;;5044227;28;20040;-68
2023/03/22 03:52:23;;;;;;;6.30;2.00;;;9.10;99.90;;;;;;5043566;28;20047;-69
2023/03/22 03:54:49;;;;;;;4.22;1.73;;;9.10;99.90;;;;;;5017636;28;20132;-70
2023/03/22 03:57:15;;;;;;;10.45;2.35;;;9.10;99.90;;;;;;5022706;28;20040;-70
2023/03/22 03:59:41;;;;;;;6.38;2.20;;;9.10;99.90;;;;;;5044333;28;20086;-70
2023/03/22 04:02:07;;;;;;;9.48;2.60;;;9.10;99.90;;;;;;5044269;28;20126;-70
2023/03/22 04:04:33;;;;;;;10.57;2.55;;;9.10;99.90;;;;;;5037809;28;20405;-70
2023/03/22 04:07:00;;;;;;;5.50;2.13;;;9.00;99.90;;;;;;5042877;28;20488;-70
2023/03/22 04:09:28;;;;;;;5.50;2.10;;;9.10;99.90;;;;;;5047241;28;20056;-69
2023/03/22 04:11:55;;;;;;;5.85;2.58;;;9.10;99.90;;;;;;5015701;28;20685;-70
2023/03/22 04:14:22;;;;;;;6.82;2.15;;;9.10;99.90;;;;;;5032238;28;20106;-68
2023/03/22 04:16:47;;;;;;;7.47;2.15;;;9.00;99.90;;;;;;5045986;28;20131;-69
2023/03/22 04:19:13;;;;;;;6.75;2.30;;;9.00;99.90;;;;;;5040899;28;20198;-69
2023/03/22 04:21:39;;;;;;;4.97;2.50;;;9.10;99.90;;;;;;5037938;28;20048;-71
2023/03/22 04:24:05;;;;;;;3.97;2.00;;;9.10;99.90;;;;;;5048010;28;20045;-69
2023/03/22 04:26:31;;;;;;;5.22;2.55;;;9.10;99.90;;;;;;5043900;28;20029;-68
2023/03/22 04:28:57;;;;;;;5.68;2.63;;;9.10;99.90;;;;;;5046996;28;20037;-68
2023/03/22 04:31:23;;;;;;;6.45;2.78;;;9.10;99.90;;;;;;5044261;28;20041;-69
2023/03/22 04:33:53;;;;;;;7.20;2.72;;;9.10;99.90;;;;;;5046773;28;20484;-69
2023/03/22 04:36:23;;;;;;;9.98;3.55;;;9.10;99.90;;;;;;5015339;28;20041;-70
2023/03/22 04:38:50;;;;;;;9.32;3.08;;;9.20;99.90;;;;;;5036683;28;20056;-68
2023/03/22 04:41:16;;;;;;;8.90;3.45;;;9.20;99.90;;;;;;5026424;28;20049;-69
2023/03/22 04:43:45;;;;;;;8.00;3.83;;;9.20;99.90;;;;;;5006228;28;22889;-69
2023/03/22 04:46:12;;;;;;;6.05;3.50;;;9.20;99.90;;;;;;5042264;28;20374;-68
2023/03/22 04:48:41;;;;;;;12.57;3.05;;;9.30;99.90;;;;;;5044370;28;20049;-68
2023/03/22 04:51:09;;;;;;;8.68;3.72;;;9.20;99.90;;;;;;5043850;28;20044;-69
2023/03/22 04:53:38;;;;;;;7.82;3.75;;;9.30;99.90;;;;;;5042669;28;20131;-69
2023/03/22 04:56:09;;;;;;;10.50;4.97;;;9.30;99.90;;;;;;5053293;28;20102;-69
2023/03/22 04:58:40;;;;;;;8.80;4.07;;;9.30;99.90;;;;;;5051337;28;20907;-71
2023/03/22 05:01:06;;;;;;;8.55;4.30;;;9.30;99.90;;;;;;5042345;28;20065;-70
2023/03/22 05:03:32;;;;;;;10.52;5.18;;;9.30;99.90;;;;;;5039746;28;20045;-72
2023/03/22 05:06:00;;;;;;;8.63;5.32;;;9.40;99.90;;;;;;5037630;28;20052;-71
2023/03/22 05:08:28;;;;;;;9.30;4.72;;;9.40;99.90;;;;;;5031389;28;20060;-70
2023/03/22 05:10:56;;;;;;;8.90;5.00;;;9.40;99.90;;;;;;5016403;28;21035;-70
2023/03/22 05:13:24;;;;;;;12.80;5.60;;;9.40;99.90;;;;;;5044557;28;20155;-68
2023/03/22 05:15:50;;;;;;;14.20;6.07;;;9.40;99.90;;;;;;5031014;28;20095;-70
2023/03/22 05:18:20;;;;;;;15.52;6.68;;;9.40;99.90;;;;;;5035630;28;20626;-69
2023/03/22 05:20:47;;;;;;;13.48;6.15;;;9.40;99.90;;;;;;5043820;28;20036;-70
2023/03/22 05:23:18;;;;;;;15.27;6.68;;;9.40;99.90;;;;;;5041111;28;20033;-71
2023/03/22 05:25:45;;;;;;;12.13;7.28;;;9.50;99.90;;;;;;5037897;28;20064;-69
2023/03/22 05:28:13;;;;;;;12.70;6.25;;;9.50;99.90;;;;;;5035599;28;20100;-71
2023/03/22 05:30:40;;;;;;;15.35;6.97;;;9.50;99.90;;;;;;5043090;28;20072;-69
2023/03/22 05:33:06;;;;;;;11.07;6.25;;;9.50;99.90;;;;;;5030192;28;20049;-70
2023/03/22 05:35:33;;;;;;;14.35;6.63;;;9.50;99.90;;;;;;5039615;28;20033;-70
2023/03/22 05:37:59;;;;;;;14.65;7.03;;;9.50;99.90;;;;;;5037065;28;20437;-69
2023/03/22 05:40:25;;;;;;;13.57;6.43;;;9.50;99.90;;;;;;5034690;28;20045;-69
2023/03/22 05:42:52;;;;;;;16.50;7.47;;;9.40;99.90;;;;;;5011716;28;20183;-71
2023/03/22 05:45:19;;;;;;;16.15;6.72;;;9.40;99.90;;;;;;5007556;28;20072;-70
2023/03/22 05:47:44;;;;;;;12.13;7.10;;;9.40;99.90;;;;;;5037705;28;20037;-70
2023/03/22 05:50:12;;;;;;;13.27;7.10;;;9.40;99.90;;;;;;5033062;28;20037;-71
2023/03/22 05:52:38;;;;;;;14.52;7.05;;;9.40;99.90;;;;;;5041587;28;20044;-69
2023/03/22 05:55:05;;;;;;;12.05;6.72;;;9.50;99.90;;;;;;5039679;28;20033;-68
2023/03/22 05:57:31;;;;;;;15.32;6.97;;;9.50;99.90;;;;;;5038233;28;20052;-70
2023/03/22 05:59:57;;;;;;;15.05;6.75;;;9.50;99.90;;;;;;5036097;28;20052;-71
2023/03/22 06:02:24;;;;;;;15.63;6.72;;;9.50;99.90;;;;;;5034921;28;21097;-69
2023/03/22 06:04:53;;;;;;;16.80;7.03;;;9.50;99.90;;;;;;5042910;28;20400;-70
2023/03/22 06:07:19;;;;;;;16.38;7.25;;;9.50;99.90;;;;;;5036979;28;21278;-69
2023/03/22 06:09:45;;;;;;;13.60;6.75;;;9.50;99.90;;;;;;5034080;28;20037;-70
2023/03/22 06:12:11;;;;;;;15.25;6.93;;;9.50;99.90;;;;;;5042270;28;20150;-70
2023/03/22 06:14:37;;;;;;;13.07;6.60;;;9.50;99.90;;;;;;5038057;28;20147;-71
2023/03/22 06:17:02;;;;;;;17.50;9.15;;;9.50;99.90;;;;;;5043026;28;20051;-69
2023/03/22 06:19:28;;;;;;;14.10;7.22;;;9.50;99.90;;;;;;5038418;28;20056;-68
2023/03/22 06:21:54;;;;;;;14.65;7.43;;;9.50;99.90;;;;;;5045961;28;20037;-72
2023/03/22 06:24:20;;;;;;;12.18;7.00;;;9.50;99.90;;;;;;5042269;28;20416;-70
2023/03/22 06:26:45;;;;;;;14.98;7.82;;;9.40;99.90;;;;;;5038642;28;20041;-68
2023/03/22 06:29:11;;;;;;;11.10;6.50;;;9.40;99.90;;;;;;5039727;28;20043;-69
2023/03/22 06:31:37;;;;;;;12.85;7.13;;;9.50;99.90;;;;;;5045319;28;20040;-67
2023/03/22 06:34:03;;;;;;;11.32;6.72;;;9.50;99.90;;;;;;5040473;28;20087;-69
2023/03/22 06:36:30;;;;;;;14.27;6.38;;;9.60;99.90;;;;;;5030481;28;20037;-69
2023/03/22 06:38:56;;;;;;;13.52;6.88;;;9.60;99.90;;;;;;5023694;28;20527;-68
2023/03/22 06:41:22;;;;;;;12.00;6.38;;;9.70;99.90;;;;;;5045121;28;20045;-69
2023/03/22 06:43:47;;;;;;;12.60;7.00;;;9.70;99.90;;;;;;5034610;28;20045;-71
2023/03/22 06:46:13;;;;;;;15.02;7.45;;;9.80;99.90;;;;;;5037388;28;20477;-69
2023/03/22 06:48:38;;;;;;;11.30;5.95;;;9.90;99.90;;;;;;5043274;28;20056;-69
2023/03/22 06:51:04;;;;;;;10.90;5.95;;;9.90;99.90;;;;;;5043924;28;20649;-69
2023/03/22 06:53:30;;;;;;;10.07;6.40;;;10.10;99.90;;;;;;5045010;28;20073;-70
2023/03/22 06:55:55;;;;;;;13.70;6.40;;;10.20;99.90;;;;;;5043247;28;20048;-69
2023/03/22 06:58:21;;;;;;;13.05;5.65;;;10.20;99.90;;;;;;5049117;28;20043;-70
2023/03/22 07:00:47;;;;;;;11.38;5.60;;;10.20;99.90;;;;;;5044001;28;20049;-69
2023/03/22 07:03:12;;;;;;;8.38;5.13;;;10.20;99.90;;;;;;5048482;28;20127;-70
2023/03/22 07:05:38;;;;;;;11.95;5.50;;;10.20;99.90;;;;;;5038585;28;20136;-69
2023/03/22 07:08:04;;;;;;;13.25;5.75;;;10.30;99.90;;;;;;5037914;28;20033;-69
2023/03/22 07:10:29;;;;;;;12.10;6.10;;;10.30;99.90;;;;;;5039311;28;20036;-69
2023/03/22 07:12:55;;;;;;;9.25;5.45;;;10.30;99.90;;;;;;5036039;28;20063;-67
2023/03/22 07:15:23;;;;;;;12.75;5.43;;;10.30;99.90;;;;;;5036024;28;20045;-68
2023/03/22 07:17:50;;;;;;;13.27;5.20;;;10.30;99.90;;;;;;5040019;28;20041;-69
2023/03/22 07:20:16;;;;;;;9.13;4.70;;;10.40;99.90;;;;;;5018301;28;20117;-73
2023/03/22 07:22:42;;;;;;;10.00;5.15;;;10.40;99.90;;;;;;5019514;28;20049;-67
2023/03/22 07:25:08;;;;;;;8.57;5.03;;;10.50;99.90;;;;;;5043052;28;20048;-72
2023/03/22 07:27:33;;;;;;;9.13;5.18;;;10.50;99.90;;;;;;5018164;28;20174;-69
2023/03/22 07:29:59;;;;;;;8.93;6.00;;;10.50;99.90;;;;;;5033177;28;20683;-69
2023/03/22 07:32:24;;;;;;;8.18;4.60;;;10.60;99.90;;;;;;5038401;28;20118;-72
2023/03/22 07:34:50;;;;;;;9.68;4.55;;;10.60;99.90;;;;;;5038558;28;20064;-67
2023/03/22 07:37:15;;;;;;;10.75;3.97;;;10.50;99.90;;;;;;5033433;28;20037;-70
2023/03/22 07:39:41;;;;;;;8.00;4.30;;;10.50;99.90;;;;;;5039577;28;20044;-69
2023/03/22 07:42:08;;;;;;;11.07;4.25;;;10.50;99.90;;;;;;5047710;28;20047;-68
2023/03/22 07:44:34;;;;;;;5.53;3.63;;;10.60;99.90;;;;;;5015154;28;20489;-70
2023/03/22 07:47:00;;;;;;;6.88;3.97;;;10.70;99.90;;;;;;5044839;28;20044;-71
2023/03/22 07:49:26;;;;;;;7.65;4.10;;;10.80;99.90;;;;;;5036050;28;20083;-67
2023/03/22 07:51:52;;;;;;;6.72;4.30;;;10.90;99.90;;;;;;5022026;28;20517;-70
2023/03/22 07:54:17;;;;;;;8.45;3.92;;;10.90;99.90;;;;;;5039661;28;20119;-68
2023/03/22 07:56:43;;;;;;;8.77;4.40;;;10.90;99.90;;;;;;5045039;28;20047;-70
2023/03/22 07:59:09;;;;;;;6.88;3.63;;;10.90;99.90;;;;;;5042086;28;20049;-69
2023/03/22 08:01:36;;;;;;;9.27;4.10;;;10.90;99.90;;;;;;5035861;28;20049;-67
2023/03/22 08:04:01;;;;;;;6.07;3.90;;;10.90;99.90;;;;;;5046718;28;20045;-69
2023/03/22 08:06:28;;;;;;;6.68;4.03;;;10.80;99.90;;;;;;5046315;28;20044;-67
2023/03/22 08:08:54;;;;;;;7.88;4.00;;;10.80;99.90;;;;;;5036277;28;20045;-69
2023/03/22 08:11:19;;;;;;;8.07;3.45;;;10.80;99.90;;;;;;5026818;28;20414;-70
2023/03/22 08:13:45;;;;;;;14.45;3.72;;;10.70;99.90;;;;;;5032752;28;20053;-68
2023/03/22 08:16:11;;;;;;;8.50;3.70;;;10.70;99.90;;;;;;5047830;28;20067;-71
2023/03/22 08:18:37;;;;;;;7.68;3.45;;;10.70;99.90;;;;;;5049831;28;20110;-69
2023/03/22 08:21:02;;;;;;;8.25;3.72;;;10.70;99.90;;;;;;5027922;28;20029;-68
2023/03/22 08:23:28;;;;;;;9.00;3.95;;;10.70;99.90;;;;;;5039022;28;20041;-69
2023/03/22 08:25:54;;;;;;;5.40;3.15;;;10.70;99.90;;;;;;5031303;28;20037;-66
2023/03/22 08:28:19;;;;;;;7.10;3.28;;;10.70;99.90;;;;;;5042773;28;20092;-71
2023/03/22 08:30:47;;;;;;;6.90;3.50;;;10.70;99.90;;;;;;5011970;28;20455;-68
2023/03/22 08:33:13;;;;;;;9.20;3.58;;;10.70;99.90;;;;;;5042726;28;20370;-69
2023/03/22 08:35:39;;;;;;;8.07;3.40;;;10.80;99.90;;;;;;5046046;28;20488;-67
2023/03/22 08:38:05;;;;;;;7.15;3.53;;;11.00;99.90;;;;;;5047524;28;20044;-68
2023/03/22 08:40:31;;;;;;;7.95;3.20;;;11.10;99.90;;;;;;5034472;28;20497;-69
2023/03/22 08:42:57;;;;;;;9.30;2.85;;;11.10;99.90;;;;;;5037227;28;20075;-68
2023/03/22 08:45:24;;;;;;;5.93;3.20;;;11.00;99.90;;;;;;5030843;28;20152;-72
2023/03/22 08:47:49;;;;;;;6.95;3.17;;;11.00;99.90;;;;;;5031711;28;20037;-70
2023/03/22 08:50:15;;;;;;;4.63;2.88;;;11.00;99.90;;;;;;5031718;28;20087;-70
2023/03/22 08:52:40;;;;;;;4.55;2.80;;;11.00;99.90;;;;;;5039915;28;20061;-71
2023/03/22 08:55:08;;;;;;;8.05;3.13;;;11.00;99.90;;;;;;5046026;28;20036;-68
2023/03/22 08:57:34;;;;;;;6.40;3.05;;;11.00;99.90;;;;;;5034025;28;20037;-71
2023/03/22 09:00:00;;;;;;;10.43;3.15;;;11.00;99.90;;;;;;5032470;28;20076;-69
2023/03/22 09:02:26;;;;;;;8.52;2.83;;;11.10;99.90;;;;;;5044971;28;20048;-67
2023/03/22 09:04:52;;;;;;;4.72;3.05;;;11.10;99.90;;;;;;5038197;28;20033;-71
2023/03/22 09:07:19;;;;;;;7.20;3.17;;;11.20;99.90;;;;;;5042639;28;20037;-67
2023/03/22 09:09:45;;;;;;;7.40;3.25;;;11.30;99.90;;;;;;5050273;28;20549;-71
2023/03/22 09:12:11;;;;;;;7.50;3.03;;;11.40;99.90;;;;;;5029653;28;20033;-68
2023/03/22 09:14:37;;;;;;;5.57;3.00;;;11.50;99.90;;;;;;5033506;28;20044;-68
2023/03/22 09:17:03;;;;;;;5.68;2.83;;;11.50;99.90;;;;;;5053314;28;20052;-69
2023/03/22 09:19:30;;;;;;;6.85;2.58;;;11.50;99.90;;;;;;5037181;28;20393;-69
2023/03/22 09:21:56;;;;;;;5.35;2.38;;;11.50;99.90;;;;;;5033508;28;20045;-68
2023/03/22 09:24:21;;;;;;;6.72;2.78;;;11.50;99.90;;;;;;5016285;28;20029;-70
2023/03/22 09:26:47;;;;;;;5.82;2.67;;;11.60;99.90;;;;;;5033327;28;20171;-69
2023/03/22 09:29:12;;;;;;;5.80;2.53;;;11.70;99.90;;;;;;5030472;28;20048;-69
2023/03/22 09:31:38;;;;;;;10.32;2.53;;;11.60;99.90;;;;;;5034173;28;20041;-71
2023/03/22 09:34:04;;;;;;;7.43;2.88;;;11.60;99.90;;;;;;5022836;28;20041;-69
2023/03/22 09:36:31;;;;;;;4.75;2.45;;;11.70;99.90;;;;;;5045706;28;20041;-68
2023/03/22 09:38:58;;;;;;;5.15;2.70;;;11.60;99.90;;;;;;5032787;28;20091;-68
2023/03/22 09:41:39;;;;;;;6.20;2.45;;;11.60;99.90;;;;;;5032980;28;20107;-68
2023/03/22 09:44:14;;;;;;;8.25;2.78;;;11.60;99.90;;;;;;5048816;28;20052;-68
2023/03/22 09:46:46;;;;;;;3.92;2.30;;;11.70;99.90;;;;;;5034360;28;20064;-67
2023/03/22 09:49:16;;;;;;;6.80;2.40;;;11.70;99.90;;;;;;5051569;28;20036;-68
2023/03/22 09:51:43;;;;;;;;;;;11.80;99.90;;;;;;5049093;28;20036;-68
2023/03/22 09:54:17;;;;;;;5.00;2.88;;;11.80;99.90;;;;;;5051345;28;19962;-70
2023/03/22 09:56:48;;;;;;;5.68;2.38;;;11.80;99.90;;;;;;5051802;28;20048;-70
2023/03/22 09:59:44;;;;;;;2.50;2.22;;;11.80;99.90;;;;;;5048052;28;20041;-69
2023/03/22 10:02:34;;;;;;;3.53;2.03;;;11.70;99.90;;;;;;5016775;28;20049;-70
2023/03/22 10:05:30;;;;;;;6.57;2.10;;;11.70;99.90;;;;;;5034733;28;20069;-69
2023/03/22 10:08:11;;;;;;;7.13;2.40;;;11.40;99.90;;;;;;5032634;28;20501;-68
2023/03/22 10:10:40;;;;;;;6.07;2.53;;;11.20;99.90;;;;;;5049287;28;20397;-68
2023/03/22 10:13:26;;;;;;;8.15;2.35;;;11.00;99.90;;;;;;5049013;28;20037;-69
2023/03/22 10:15:55;;;;;;;6.10;2.25;;;10.80;99.90;;;;;;5048758;28;20040;-68
2023/03/22 10:18:25;;;;;;;4.95;2.47;;;10.70;99.90;;;;;;5043376;28;20052;-69
2023/03/22 10:20:56;;;;;;;3.85;2.17;;;10.80;99.90;;;;;;5039015;28;20056;-68
2023/03/22 10:23:43;;;;;;;;;;;10.70;99.90;;;;;;5038197;28;20068;-69
2023/03/22 10:26:18;;;;;;;5.97;2.38;;;10.70;99.90;;;;;;5032084;28;19916;-68
2023/03/22 10:28:46;;;;;;;7.30;2.55;;;10.60;99.90;;;;;;5043339;28;20084;-66
2023/03/22 10:31:16;;;;;;;7.57;2.40;;;10.60;99.90;;;;;;5044378;28;20079;-68
2023/03/22 10:33:49;;;;;;;8.80;2.70;;;10.60;99.90;;;;;;5048103;28;20173;-67
2023/03/22 10:36:23;;;;;;;4.25;2.15;;;10.50;99.90;;;;;;5020469;28;20041;-68
2023/03/22 10:38:55;;;;;;;7.32;2.78;;;10.50;99.90;;;;;;5031733;28;20466;-67
2023/03/22 10:41:23;;;;;;;5.43;2.25;;;10.50;99.90;;;;;;5031739;28;20441;-69
2023/03/22 10:43:56;;;;;;;6.97;2.17;;;10.40;99.90;;;;;;5030845;28;20816;-68
2023/03/22 10:46:26;;;;;;;5.97;2.13;;;10.20;99.90;;;;;;5031270;28;20073;-67
2023/03/22 10:48:59;;;;;;;7.57;2.85;;;10.10;99.90;;;;;;5030988;28;20116;-68
2023/03/22 10:51:38;;;;;;;6.88;2.53;;;10.00;99.90;;;;;;5032263;28;20056;-67
2023/03/22 10:54:04;;;;;;;5.22;2.65;;;10.00;99.90;;;;;;5031224;28;20064;-67
2023/03/22 10:56:31;;;;;;;6.25;2.45;;;10.00;99.90;;;;;;5014867;28;20045;-69
2023/03/22 10:58:57;;;;;;;8.90;3.30;;;9.90;99.90;;;;;;5029027;28;20408;-69
2023/03/22 11:01:32;;;;;;;5.65;3.20;;;9.90;99.90;;;;;;5030766;28;20133;-69
2023/03/22 11:04:11;;;;;;;6.35;3.10;;;9.90;99.90;;;;;;5022959;28;20051;-67
2023/03/22 11:06:50;;;;;;;10.13;3.15;;;9.80;99.90;;;;;;5038858;28;20087;-68
2023/03/22 11:09:19;;;;;;;9.37;3.40;;;9.80;99.90;;;;;;5050036;28;20033;-69
2023/03/22 11:11:53;;;;;;;9.32;2.95;;;9.90;99.90;;;;;;5040043;28;20064;-69
2023/03/22 11:14:36;;;;;;;6.38;3.45;;;9.90;99.90;;;;;;5043920;28;20049;-70
2023/03/22 11:17:04;;;;;;;5.07;2.92;;;9.90;99.90;;;;;;5017024;28;20116;-68
2023/03/22 11:19:48;;;;;;;4.97;3.13;;;9.80;99.90;;;;;;5050647;28;20453;-68
2023/03/22 11:22:23;;;;;;;5.30;2.78;;;9.80;99.90;;;;;;5048031;28;20554;-67
2023/03/22 11:24:50;;;;;;;9.13;3.08;;;9.70;99.90;;;;;;5044309;28;20103;-68
2023/03/22 11:27:28;;;;;;;9.10;2.72;;;9.70;99.90;;;;;;5051301;28;20045;-70
2023/03/22 11:29:58;;;;;;;7.57;3.30;;;9.60;99.90;;;;;;5039306;28;20047;-68
2023/03/22 11:32:28;;;;;;;;;;;9.60;99.90;;;;;;5048643;28;20033;-67
2023/03/22 11:35:19;;;;;;;5.35;2.40;;;9.70;99.90;;;;;;5051014;28;19988;-67
2023/03/22 11:37:46;;;;;;;;;;;9.60;99.90;;;;;;5014853;28;20052;-67
2023/03/22 11:40:17;;;;;;;6.97;2.80;;;9.70;99.90;;;;;;5037189;28;19917;-68
2023/03/22 11:42:43;;;;;;;6.90;2.40;;;9.70;99.90;;;;;;5045491;28;20462;-70
2023/03/22 11:45:15;;;;;;;4.15;2.53;;;9.70;99.90;;;;;;5042634;28;20128;-68
2023/03/22 11:47:40;;;;;;;4.85;2.05;;;9.80;99.90;;;;;;5048406;28;20064;-67
2023/03/22 11:50:18;;;;;;;8.75;2.63;;;9.80;99.90;;;;;;5038147;28;20098;-68
2023/03/22 11:52:46;;;;;;;5.18;2.30;;;9.90;99.90;;;;;;5034941;28;20069;-67
2023/03/22 11:55:16;;;;;;;4.32;2.45;;;9.80;99.90;;;;;;5049239;28;20143;-67
2023/03/22 11:57:42;;;;;;;4.90;2.17;;;9.80;99.90;;;;;;5049637;28;20044;-68
2023/03/22 12:00:13;;;;;;;3.97;2.30;;;9.90;99.90;;;;;;5046402;28;20319;-67
2023/03/22 12:02:48;;;;;;;4.30;2.58;;;9.80;99.90;;;;;;5032964;28;20048;-68
2023/03/22 12:05:26;;;;;;;5.68;2.28;;;9.90;99.90;;;;;;5051501;28;20068;-68
2023/03/22 12:08:01;;;;;;;3.95;2.25;;;9.90;99.90;;;;;;5021327;28;20029;-68
2023/03/22 12:10:31;;;;;;;5.28;1.73;;;9.90;99.90;;;;;;5041087;28;20386;-69
2023/03/22 12:13:05;;;;;;;3.58;2.33;;;9.90;99.90;;;;;;5053796;28;20071;-67
2023/03/22 12:15:35;;;;;;;4.43;2.03;;;9.90;99.90;;;;;;5051597;28;20498;-68
2023/03/22 12:18:28;;;;;;;3.38;2.72;;;9.90;99.90;;;;;;5049887;28;20048;-66
2023/03/22 12:20:59;;;;;;;10.80;2.85;;;9.90;99.90;;;;;;5042853;28;20044;-66
2023/03/22 12:23:27;;;;;;;8.82;2.55;;;9.90;99.90;;;;;;5050188;28;20079;-65
2023/03/22 12:25:59;;;;;;;4.97;2.50;;;9.90;99.90;;;;;;5046348;28;20105;-66
2023/03/22 12:28:34;;;;;;;5.78;2.55;;;9.90;99.90;;;;;;5015487;28;20187;-67
2023/03/22 12:31:02;;;;;;;9.95;3.15;;;9.90;99.90;;;;;;5035955;28;20037;-69
2023/03/22 12:33:37;;;;;;;3.10;2.35;;;9.90;99.90;;;;;;5045611;28;20049;-67
2023/03/22 12:36:05;;;;;;;8.10;3.08;;;9.90;99.90;;;;;;5034261;28;20042;-69
2023/03/22 12:38:42;;;;;;;6.40;2.53;;;9.90;99.90;;;;;;5035800;28;20049;-66
2023/03/22 12:41:22;;;;;;;3.20;2.72;;;9.90;99.90;;;;;;5034179;28;20056;-66
2023/03/22 12:43:55;;;;;;;6.18;2.85;;;9.90;99.90;;;;;;5032135;28;20053;-67
2023/03/22 12:46:27;;;;;;;7.72;2.78;;;9.90;99.90;;;;;;5016550;28;20088;-67
2023/03/22 12:49:24;;;;;;;9.02;3.00;;;9.90;99.90;;;;;;5033581;28;20520;-67
2023/03/22 12:51:52;;;;;;;2.75;2.28;;;10.00;99.90;;;;;;5034078;28;20386;-68
2023/03/22 12:54:22;;;;;;;4.80;2.58;;;10.00;99.90;;;;;;5017042;28;20045;-68
2023/03/22 12:56:50;;;;;;;4.32;2.55;;;10.00;99.90;;;;;;5035224;28;20124;-67
2023/03/22 12:59:19;;;;;;;8.07;2.47;;;9.90;99.90;;;;;;5031030;28;20053;-67
2023/03/22 13:02:06;;;;;;;4.18;2.33;;;9.90;99.90;;;;;;5033694;28;20064;-66
2023/03/22 13:04:35;;;;;;;6.07;2.78;;;9.80;99.90;;;;;;5026399;28;20049;-68
2023/03/22 13:07:13;;;;;;;7.28;3.08;;;9.80;99.90;;;;;;5039588;28;20047;-67